Time;durP1;ratioP1;P1;durP2;ratioP2;P2;SDS_P1;SDS_P2;PMS_P1;PMS_P2;Temp;Humidity;BMP_temperature;BMP_pressure;BME280_temperature;BME280_humidity;BME280_pressure;Samples;Min_cycle;Max_cycle;Signal;HPM_P1;HPM_P2
2022/11/11 00:02:03;;;;;;;15.05;7.15;;;11.80;99.90;;;;;;5065246;28;20047;-81
2022/11/11 00:04:28;;;;;;;15.48;7.10;;;11.80;99.90;;;;;;5083704;28;20037;-84
2022/11/11 00:06:54;;;;;;;16.38;7.15;;;11.80;99.90;;;;;;5086488;28;20114;-79
2022/11/11 00:09:20;;;;;;;18.63;7.88;;;11.90;99.90;;;;;;5118521;27;20064;-84
2022/11/11 00:11:45;;;;;;;20.25;8.00;;;11.80;99.90;;;;;;5071222;28;20055;-81
2022/11/11 00:14:11;;;;;;;16.05;7.25;;;11.80;99.90;;;;;;5065529;28;20052;-84
2022/11/11 00:25:14;;;;;;;19.20;8.80;;;11.70;99.90;;;;;;5078205;28;20353;-82
2022/11/11 00:27:40;;;;;;;15.88;8.10;;;11.70;99.90;;;;;;5113103;27;20044;-79
2022/11/11 00:30:06;;;;;;;24.42;8.38;;;11.70;99.90;;;;;;5068223;28;20050;-78
2022/11/11 00:32:32;;;;;;;20.00;8.43;;;11.80;99.90;;;;;;5115039;27;20050;-81
2022/11/11 00:37:45;;;;;;;23.20;8.40;;;11.60;99.90;;;;;;5089757;28;20513;-83
2022/11/11 00:40:13;;;;;;;20.88;8.77;;;11.70;99.90;;;;;;5067043;28;20111;-81
2022/11/11 00:42:39;;;;;;;25.10;8.80;;;11.70;99.90;;;;;;5084415;28;20245;-79
2022/11/11 00:45:06;;;;;;;21.70;8.82;;;11.60;99.90;;;;;;5067136;28;20048;-86
2022/11/11 00:53:15;;;;;;;18.55;8.50;;;11.80;99.90;;;;;;5078464;28;20401;-83
2022/11/11 00:55:41;;;;;;;20.17;8.48;;;11.80;99.90;;;;;;5084186;28;20043;-80
2022/11/11 00:58:07;;;;;;;20.40;8.57;;;11.80;99.90;;;;;;5067617;28;20036;-81
2022/11/11 01:00:32;;;;;;;20.75;8.45;;;11.80;99.90;;;;;;5113223;27;20032;-79
2022/11/11 01:02:58;;;;;;;26.92;9.30;;;11.80;99.90;;;;;;5068826;28;20048;-80
2022/11/11 01:05:24;;;;;;;21.67;8.95;;;11.70;99.90;;;;;;5077582;28;20124;-83
2022/11/11 01:07:50;;;;;;;16.98;8.35;;;11.80;99.90;;;;;;5082267;28;20080;-79
2022/11/11 01:10:36;;;;;;;18.60;8.40;;;11.80;99.90;;;;;;5079070;28;20071;-78
2022/11/11 01:13:13;;;;;;;23.02;8.63;;;11.80;99.90;;;;;;5081274;28;20079;-82
2022/11/11 01:15:47;;;;;;;23.92;8.80;;;11.80;99.90;;;;;;5081228;28;20132;-82
2022/11/11 01:18:19;;;;;;;23.77;9.43;;;11.80;99.90;;;;;;5076293;28;20040;-82
2022/11/11 01:20:45;;;;;;;19.98;9.23;;;11.80;99.90;;;;;;5101291;28;20582;-81
2022/11/11 01:23:13;;;;;;;20.80;9.25;;;11.80;99.90;;;;;;5068855;28;20047;-79
2022/11/11 01:25:40;;;;;;;21.02;9.00;;;11.80;99.90;;;;;;5081229;28;20043;-81
2022/11/11 01:28:07;;;;;;;22.13;9.38;;;11.70;99.90;;;;;;5080091;28;20036;-78
2022/11/11 01:30:34;;;;;;;20.48;9.15;;;11.80;99.90;;;;;;5102698;28;20067;-84
2022/11/11 01:33:01;;;;;;;24.85;9.88;;;11.80;99.90;;;;;;5088132;28;20110;-81
2022/11/11 01:35:27;;;;;;;27.30;9.80;;;11.70;99.90;;;;;;5072285;28;20036;-79
2022/11/11 01:37:53;;;;;;;22.35;9.77;;;11.60;99.90;;;;;;5069907;28;20036;-80
2022/11/11 01:40:18;;;;;;;21.30;8.98;;;11.70;99.90;;;;;;5126313;27;20561;-80
2022/11/11 01:43:07;;;;;;;19.20;9.00;;;11.70;99.90;;;;;;5079238;28;20499;-83
2022/11/11 01:46:04;;;;;;;22.50;9.50;;;11.70;99.90;;;;;;5060794;28;20048;-83
2022/11/11 01:51:36;;;;;;;22.73;9.45;;;11.70;99.90;;;;;;5063755;28;20123;-81
2022/11/11 01:54:07;;;;;;;21.80;8.85;;;11.80;99.90;;;;;;5065526;28;20159;-81
2022/11/11 01:56:34;;;;;;;20.90;9.30;;;11.80;99.90;;;;;;5057915;28;20137;-79
2022/11/11 01:59:05;;;;;;;28.67;9.75;;;11.70;99.90;;;;;;5012375;28;20507;-82
2022/11/11 02:01:32;;;;;;;25.08;9.38;;;11.70;99.90;;;;;;5078070;28;20029;-85
2022/11/11 02:06:48;;;;;;;24.95;9.88;;;11.70;99.90;;;;;;5061004;28;20049;-85
2022/11/11 02:09:14;;;;;;;27.80;9.60;;;11.70;99.90;;;;;;5044456;28;20072;-80
2022/11/11 02:14:41;;;;;;;18.67;9.48;;;11.80;99.90;;;;;;5049673;28;20110;-80
2022/11/11 02:17:12;;;;;;;24.67;9.55;;;11.80;99.90;;;;;;5027666;28;20127;-85
2022/11/11 02:19:47;;;;;;;22.80;9.57;;;11.70;99.90;;;;;;5046288;28;20131;-85
2022/11/11 02:22:25;;;;;;;24.83;9.82;;;11.70;99.90;;;;;;5028779;28;20114;-84
2022/11/11 02:24:52;;;;;;;27.02;9.75;;;11.70;99.90;;;;;;5056790;28;20426;-81
2022/11/11 02:27:19;;;;;;;20.23;9.70;;;11.70;99.90;;;;;;5059324;28;20059;-79
2022/11/11 02:29:47;;;;;;;20.48;9.80;;;11.70;99.90;;;;;;5048731;28;20356;-82
2022/11/11 02:32:13;;;;;;;24.20;10.10;;;11.70;99.90;;;;;;5061224;28;20087;-83
2022/11/11 02:34:39;;;;;;;19.10;9.68;;;11.70;99.90;;;;;;5063623;28;20041;-83
2022/11/11 02:37:07;;;;;;;22.63;10.35;;;11.70;99.90;;;;;;5045088;28;20115;-83
2022/11/11 02:39:36;;;;;;;23.52;10.75;;;11.70;99.90;;;;;;5060151;28;20045;-81
2022/11/11 02:42:08;;;;;;;25.48;10.82;;;11.60;99.90;;;;;;5050699;28;20711;-82
2022/11/11 02:44:36;;;;;;;19.65;11.15;;;11.70;99.90;;;;;;5026483;28;20140;-81
2022/11/11 02:47:03;;;;;;;18.98;10.60;;;11.60;99.90;;;;;;5068355;28;20811;-82
2022/11/11 02:49:29;;;;;;;24.98;11.45;;;11.70;99.90;;;;;;5051006;28;20041;-81
2022/11/11 02:51:55;;;;;;;22.10;11.38;;;11.60;99.90;;;;;;5063231;28;20064;-81
2022/11/11 02:54:21;;;;;;;24.42;12.27;;;11.60;99.90;;;;;;5052984;28;20067;-79
2022/11/11 02:59:30;;;;;;;24.83;12.50;;;11.50;99.90;;;;;;5068987;28;20036;-80
2022/11/11 03:01:56;;;;;;;24.08;13.80;;;11.40;99.90;;;;;;5051026;28;20455;-79
2022/11/11 03:04:22;;;;;;;24.27;13.45;;;11.50;99.90;;;;;;5064220;28;20479;-84
2022/11/11 03:06:47;;;;;;;24.27;13.52;;;11.40;99.90;;;;;;5048785;28;20466;-83
2022/11/11 03:09:13;;;;;;;24.80;13.98;;;11.40;99.90;;;;;;5048874;28;20036;-81
2022/11/11 03:11:39;;;;;;;28.75;15.63;;;11.40;99.90;;;;;;5050221;28;20147;-83
2022/11/11 03:17:46;;;;;;;24.23;14.93;;;11.30;99.90;;;;;;5070097;28;20052;-80
2022/11/11 03:23:11;;;;;;;30.30;16.60;;;11.40;99.90;;;;;;5055514;28;20064;-80
2022/11/11 03:25:42;;;;;;;28.35;16.52;;;11.30;99.90;;;;;;5068144;28;20088;-85
2022/11/11 03:28:10;;;;;;;30.95;17.05;;;11.30;99.90;;;;;;5084914;28;20036;-84
2022/11/11 03:30:37;;;;;;;30.77;17.02;;;11.20;99.90;;;;;;5044941;28;20037;-80
2022/11/11 03:33:04;;;;;;;30.02;17.83;;;11.30;99.90;;;;;;5052518;28;20056;-78
2022/11/11 03:35:30;;;;;;;32.08;18.05;;;11.20;99.90;;;;;;5051875;28;20435;-83
2022/11/11 03:40:39;;;;;;;37.30;18.08;;;11.20;99.90;;;;;;5067057;28;20049;-83
2022/11/11 03:43:07;;;;;;;34.92;18.30;;;11.10;99.90;;;;;;5049953;28;20040;-81
2022/11/11 03:45:33;;;;;;;33.55;18.45;;;11.10;99.90;;;;;;5053755;28;20485;-81
2022/11/11 03:47:58;;;;;;;30.75;18.33;;;11.20;99.90;;;;;;5071119;28;20045;-78
2022/11/11 03:50:24;;;;;;;34.70;19.55;;;11.10;99.90;;;;;;5051873;28;20469;-82
2022/11/11 03:52:50;;;;;;;32.83;18.80;;;11.10;99.90;;;;;;5064987;28;20071;-81
2022/11/11 03:55:15;;;;;;;30.17;18.88;;;11.20;99.90;;;;;;5065877;28;20075;-79
2022/11/11 03:57:59;;;;;;;30.63;18.85;;;11.20;99.90;;;;;;5057420;28;20052;-82
2022/11/11 04:00:27;;;;;;;29.77;19.70;;;11.10;99.90;;;;;;5051728;28;20059;-83
2022/11/11 04:11:24;;;;;;;37.53;20.48;;;11.10;99.90;;;;;;5064959;28;20038;-86
2022/11/11 04:16:35;;;;;;;28.58;20.52;;;11.10;99.90;;;;;;5063402;28;20043;-81
2022/11/11 04:21:45;;;;;;;35.53;20.75;;;11.00;99.90;;;;;;5069134;28;20048;-85
2022/11/11 04:27:09;;;;;;;35.13;20.63;;;11.10;99.90;;;;;;5038239;28;20040;-81
2022/11/11 04:29:35;;;;;;;38.65;20.77;;;11.10;99.90;;;;;;5076655;28;20367;-84
2022/11/11 04:34:55;;;;;;;31.67;20.77;;;11.10;99.90;;;;;;5060116;28;20112;-81
2022/11/11 04:37:21;;;;;;;35.80;20.23;;;11.20;99.90;;;;;;5027952;28;20041;-82
2022/11/11 04:42:33;;;;;;;35.38;20.27;;;11.10;99.90;;;;;;5064681;28;20176;-80
2022/11/11 04:48:06;;;;;;;33.20;19.15;;;11.00;99.90;;;;;;5043987;28;20047;-82
2022/11/11 04:50:36;;;;;;;34.85;20.80;;;11.00;99.90;;;;;;5059694;28;20279;-80
2022/11/11 04:53:04;;;;;;;41.53;21.73;;;11.10;99.90;;;;;;5078437;28;20449;-82
2022/11/11 04:58:16;;;;;;;31.23;21.50;;;11.10;99.90;;;;;;5061429;28;20110;-86
2022/11/11 05:00:41;;;;;;;34.53;21.35;;;11.10;99.90;;;;;;5060257;28;20041;-84
2022/11/11 05:03:17;;;;;;;41.35;22.70;;;11.00;99.90;;;;;;5058938;28;20151;-80
2022/11/11 05:09:00;;;;;;;35.38;22.60;;;11.00;99.90;;;;;;5088054;28;20048;-84
2022/11/11 05:11:28;;;;;;;33.35;21.88;;;10.90;99.90;;;;;;5085525;28;20051;-85
2022/11/11 05:22:24;;;;;;;35.60;23.90;;;10.80;99.90;;;;;;5081410;28;20050;-79
2022/11/11 05:27:33;;;;;;;38.88;23.27;;;11.00;99.90;;;;;;5086227;28;20051;-83
2022/11/11 05:29:59;;;;;;;38.78;24.83;;;11.00;99.90;;;;;;5072574;28;20042;-79
2022/11/11 05:32:25;;;;;;;39.53;23.63;;;11.00;99.90;;;;;;5069653;28;20158;-78
2022/11/11 05:34:51;;;;;;;39.05;23.73;;;10.90;99.90;;;;;;5088880;28;20768;-80
2022/11/11 05:37:17;;;;;;;38.45;24.05;;;11.00;99.90;;;;;;5104145;28;20049;-83
2022/11/11 05:39:43;;;;;;;38.17;23.85;;;11.00;99.90;;;;;;5072829;28;20039;-84
2022/11/11 05:42:09;;;;;;;41.58;24.42;;;10.90;99.90;;;;;;5065958;28;20062;-82
2022/11/11 05:44:36;;;;;;;45.25;24.73;;;10.90;99.90;;;;;;5116549;27;20029;-79
2022/11/11 05:47:01;;;;;;;41.80;23.92;;;10.70;99.90;;;;;;5070895;28;20044;-78
2022/11/11 05:49:27;;;;;;;42.13;24.70;;;10.80;99.90;;;;;;5070928;28;20042;-79
2022/11/11 05:51:54;;;;;;;41.97;25.60;;;10.70;99.90;;;;;;5073590;28;20048;-80
2022/11/11 05:54:20;;;;;;;39.92;24.67;;;10.50;99.90;;;;;;5070231;28;20066;-80
2022/11/11 05:56:48;;;;;;;43.08;24.70;;;10.50;99.90;;;;;;5086009;28;20044;-80
2022/11/11 05:59:13;;;;;;;46.50;24.98;;;10.40;99.90;;;;;;5104610;28;20036;-80
2022/11/11 06:01:39;;;;;;;37.80;24.95;;;10.60;99.90;;;;;;5065380;28;20039;-82
2022/11/11 06:04:06;;;;;;;41.72;24.52;;;10.50;99.90;;;;;;5132004;27;20052;-80
2022/11/11 06:06:34;;;;;;;42.53;23.77;;;10.50;99.90;;;;;;5079905;28;20069;-81
2022/11/11 06:08:59;;;;;;;45.75;24.45;;;10.50;99.90;;;;;;5097958;28;20092;-81
2022/11/11 06:11:26;;;;;;;49.33;25.10;;;10.40;99.90;;;;;;5096372;28;20131;-80
2022/11/11 06:13:52;;;;;;;40.60;23.02;;;10.50;99.90;;;;;;5096492;28;20040;-82
2022/11/11 06:16:18;;;;;;;42.28;23.58;;;10.70;99.90;;;;;;5087925;28;20085;-82
2022/11/11 06:18:44;;;;;;;46.47;23.38;;;10.70;99.90;;;;;;5106753;27;20706;-80
2022/11/11 06:21:10;;;;;;;44.47;22.90;;;10.70;99.90;;;;;;5079480;28;20083;-78
2022/11/11 06:23:36;;;;;;;37.60;22.33;;;10.80;99.90;;;;;;5096281;28;20127;-78
2022/11/11 06:26:13;;;;;;;34.60;21.08;;;10.90;99.90;;;;;;5092089;28;20052;-79
2022/11/11 06:28:58;;;;;;;42.60;22.88;;;10.90;99.90;;;;;;5129865;27;20040;-78
2022/11/11 06:31:25;;;;;;;40.05;21.75;;;11.00;99.90;;;;;;5074976;28;20036;-80
2022/11/11 06:33:52;;;;;;;41.53;22.00;;;11.00;99.90;;;;;;5070292;28;20055;-82
2022/11/11 06:36:20;;;;;;;36.45;21.58;;;11.10;99.90;;;;;;5092201;28;20032;-79
2022/11/11 06:38:46;;;;;;;34.45;21.65;;;11.00;99.90;;;;;;5093095;28;20050;-78
2022/11/11 06:41:14;;;;;;;37.95;23.05;;;11.00;99.90;;;;;;5123898;27;20077;-77
2022/11/11 06:43:41;;;;;;;38.70;22.67;;;11.10;99.90;;;;;;5104674;27;20066;-80
2022/11/11 06:46:15;;;;;;;45.28;24.58;;;11.10;99.90;;;;;;5094488;28;20049;-80
2022/11/11 06:48:42;;;;;;;42.95;24.50;;;11.00;99.90;;;;;;5073747;28;20040;-81
2022/11/11 06:51:10;;;;;;;41.97;24.50;;;11.00;99.90;;;;;;5065625;28;20071;-83
2022/11/11 06:53:35;;;;;;;40.35;24.52;;;11.00;99.90;;;;;;5082175;28;20043;-80
2022/11/11 06:56:02;;;;;;;43.65;23.98;;;11.10;99.90;;;;;;5090563;28;20463;-78
2022/11/11 06:58:28;;;;;;;41.38;24.92;;;11.10;99.90;;;;;;5096159;27;20036;-79
2022/11/11 07:00:53;;;;;;;47.47;24.67;;;11.00;99.90;;;;;;5098912;27;20971;-78
2022/11/11 07:03:20;;;;;;;41.13;24.70;;;11.10;99.90;;;;;;5063243;28;20043;-80
2022/11/11 07:05:46;;;;;;;36.95;24.60;;;11.10;99.90;;;;;;5077035;28;20097;-83
2022/11/11 07:08:17;;;;;;;38.65;24.42;;;11.10;99.90;;;;;;5066333;28;20116;-81
2022/11/11 07:10:45;;;;;;;40.80;25.25;;;11.10;99.90;;;;;;5067612;28;20048;-83
2022/11/11 07:13:12;;;;;;;41.92;24.52;;;11.20;99.90;;;;;;5110606;27;20046;-80
2022/11/11 07:15:38;;;;;;;41.53;25.52;;;11.10;99.90;;;;;;5082708;28;20048;-78
2022/11/11 07:18:04;;;;;;;39.42;25.10;;;11.00;99.90;;;;;;5086801;28;20040;-80
2022/11/11 07:20:30;;;;;;;40.70;24.85;;;11.10;99.90;;;;;;5085312;28;20032;-80
2022/11/11 07:22:55;;;;;;;37.88;24.05;;;11.10;99.90;;;;;;5083543;28;20469;-79
2022/11/11 07:25:21;;;;;;;44.03;24.88;;;11.10;99.90;;;;;;5066203;28;20046;-79
2022/11/11 07:27:56;;;;;;;47.50;24.55;;;11.20;99.90;;;;;;5067652;28;20147;-79
2022/11/11 07:30:22;;;;;;;39.83;25.25;;;11.20;99.90;;;;;;5070419;28;20529;-80
2022/11/11 07:32:50;;;;;;;42.10;25.23;;;11.10;99.90;;;;;;5066704;28;20048;-79
2022/11/11 07:35:17;;;;;;;47.70;25.92;;;11.20;99.90;;;;;;5099139;27;20048;-81
2022/11/11 07:37:44;;;;;;;40.47;24.50;;;11.10;99.90;;;;;;5087324;28;20186;-79
2022/11/11 07:40:12;;;;;;;35.55;24.20;;;11.10;99.90;;;;;;5064858;28;20121;-77
2022/11/11 07:42:40;;;;;;;39.25;25.42;;;11.10;99.90;;;;;;5099000;28;20181;-85
2022/11/11 07:45:07;;;;;;;39.40;24.70;;;11.10;99.90;;;;;;5068053;28;20127;-82
2022/11/11 07:47:33;;;;;;;42.83;24.80;;;11.20;99.90;;;;;;5068740;28;20039;-82
2022/11/11 07:50:00;;;;;;;44.85;24.55;;;11.10;99.90;;;;;;5085493;28;20075;-81
2022/11/11 07:52:25;;;;;;;40.53;24.63;;;11.10;99.90;;;;;;5082367;28;20047;-82
2022/11/11 07:54:51;;;;;;;46.38;24.67;;;11.10;99.90;;;;;;5068397;28;20036;-77
2022/11/11 07:57:22;;;;;;;40.05;24.60;;;11.20;99.90;;;;;;5085819;28;20510;-80
2022/11/11 07:59:48;;;;;;;41.92;24.42;;;11.30;99.90;;;;;;5073488;28;20081;-79
2022/11/11 08:02:14;;;;;;;46.90;24.45;;;11.10;99.90;;;;;;5084546;28;20075;-78
2022/11/11 08:04:40;;;;;;;44.03;24.52;;;11.20;99.90;;;;;;5080736;28;20103;-80
2022/11/11 08:07:06;;;;;;;41.90;23.77;;;11.30;99.90;;;;;;5078821;28;20364;-81
2022/11/11 08:09:32;;;;;;;35.70;23.33;;;11.20;99.90;;;;;;5081911;28;20062;-80
2022/11/11 08:14:42;;;;;;;40.40;23.37;;;11.20;99.90;;;;;;5082939;28;20044;-82
2022/11/11 08:17:08;;;;;;;42.03;24.08;;;11.30;99.90;;;;;;5089391;28;20098;-79
2022/11/11 08:19:33;;;;;;;37.90;23.98;;;11.20;99.90;;;;;;5068863;28;20040;-82
2022/11/11 08:22:03;;;;;;;39.40;23.98;;;11.30;99.90;;;;;;5084843;28;20479;-82
2022/11/11 08:24:29;;;;;;;36.97;23.67;;;11.20;99.90;;;;;;5068148;28;20046;-83
2022/11/11 08:26:55;;;;;;;39.70;23.05;;;11.20;99.90;;;;;;5086069;28;20130;-81
2022/11/11 08:29:21;;;;;;;42.22;24.08;;;11.30;99.90;;;;;;5071703;28;20101;-83
2022/11/11 08:31:46;;;;;;;37.80;24.52;;;11.20;99.90;;;;;;5085331;28;20048;-83
2022/11/11 08:34:12;;;;;;;38.25;23.05;;;11.20;99.90;;;;;;5099539;28;20143;-79
2022/11/11 08:36:38;;;;;;;43.65;24.23;;;11.30;99.90;;;;;;5095861;28;20063;-84
2022/11/11 08:39:04;;;;;;;43.75;22.77;;;11.40;99.90;;;;;;5077965;28;20147;-81
2022/11/11 08:41:30;;;;;;;40.53;23.58;;;11.40;99.90;;;;;;5085011;28;20091;-79
2022/11/11 08:43:55;;;;;;;35.58;22.27;;;11.30;99.90;;;;;;5082433;28;20111;-78
2022/11/11 08:46:22;;;;;;;39.70;23.42;;;11.40;99.90;;;;;;5114223;27;20059;-81
2022/11/11 08:48:47;;;;;;;38.08;22.67;;;11.40;99.90;;;;;;5069649;28;20040;-81
2022/11/11 08:51:14;;;;;;;40.35;22.58;;;11.30;99.90;;;;;;5064854;28;20122;-84
2022/11/11 08:53:40;;;;;;;36.63;23.15;;;11.30;99.90;;;;;;5052794;28;20362;-80
2022/11/11 08:56:06;;;;;;;36.60;22.92;;;11.40;99.90;;;;;;5082961;28;20036;-80
2022/11/11 08:58:32;;;;;;;37.85;21.73;;;11.40;99.90;;;;;;5098384;28;20179;-80
2022/11/11 09:00:58;;;;;;;36.53;23.23;;;11.20;99.90;;;;;;5065669;28;20155;-79
2022/11/11 09:03:23;;;;;;;32.95;22.48;;;11.30;99.90;;;;;;5085886;28;20389;-80
2022/11/11 09:05:49;;;;;;;36.67;22.92;;;11.20;99.90;;;;;;5083569;28;20164;-83
2022/11/11 09:08:15;;;;;;;36.72;21.63;;;11.20;99.90;;;;;;5080902;28;20470;-82
2022/11/11 09:10:41;;;;;;;38.65;23.23;;;11.20;99.90;;;;;;5063991;28;20040;-80
2022/11/11 09:13:07;;;;;;;34.55;21.90;;;11.30;99.90;;;;;;5068111;28;20044;-81
2022/11/11 09:15:33;;;;;;;35.03;22.05;;;11.40;99.90;;;;;;5084702;28;20031;-83
2022/11/11 09:17:59;;;;;;;33.17;21.58;;;11.40;99.90;;;;;;5067439;28;20172;-83
2022/11/11 09:20:25;;;;;;;39.85;22.00;;;11.40;99.90;;;;;;5082324;28;20434;-81
2022/11/11 09:22:51;;;;;;;39.22;22.40;;;11.30;99.90;;;;;;5071004;28;20134;-83
2022/11/11 09:25:18;;;;;;;36.22;22.15;;;11.30;99.90;;;;;;5100880;28;20462;-78
2022/11/11 09:27:52;;;;;;;36.30;21.33;;;11.30;99.90;;;;;;5084333;28;20047;-83
2022/11/11 09:30:17;;;;;;;37.05;21.98;;;11.40;99.90;;;;;;5105578;28;20051;-84
2022/11/11 09:32:43;;;;;;;37.50;21.98;;;11.30;99.90;;;;;;5067391;28;20036;-82
2022/11/11 09:35:09;;;;;;;34.85;21.90;;;11.20;99.90;;;;;;5090177;28;20083;-81
2022/11/11 09:37:34;;;;;;;34.10;22.23;;;11.30;99.90;;;;;;5105430;28;20112;-80
2022/11/11 09:40:00;;;;;;;34.17;21.27;;;11.30;99.90;;;;;;5106954;28;20048;-78
2022/11/11 09:42:41;;;;;;;32.80;21.85;;;11.30;99.90;;;;;;5088752;28;20028;-83
2022/11/11 09:45:22;;;;;;;33.17;20.88;;;11.20;99.90;;;;;;5083868;28;20170;-81
2022/11/11 09:48:10;;;;;;;35.15;20.88;;;11.20;99.90;;;;;;5087073;28;20051;-82
2022/11/11 09:50:38;;;;;;;35.22;21.27;;;11.10;99.90;;;;;;5100298;28;20056;-78
2022/11/11 09:53:19;;;;;;;38.28;22.35;;;11.10;99.90;;;;;;5089683;28;20109;-81
2022/11/11 09:56:13;;;;;;;37.13;21.90;;;11.20;99.90;;;;;;5106179;28;20059;-79
2022/11/11 09:59:00;;;;;;;34.90;21.83;;;11.10;99.90;;;;;;5065820;28;20383;-84
2022/11/11 10:01:31;;;;;;;34.60;22.17;;;11.10;99.90;;;;;;5092352;28;20043;-81
2022/11/11 10:04:11;;;;;;;35.70;21.70;;;11.10;99.90;;;;;;5090598;28;20048;-79
2022/11/11 10:06:37;;;;;;;39.05;22.70;;;11.10;99.90;;;;;;5074228;28;20085;-81
2022/11/11 10:09:25;;;;;;;36.55;22.05;;;11.10;99.90;;;;;;5108875;28;20204;-82
2022/11/11 10:12:01;;;;;;;35.60;20.40;;;11.10;99.90;;;;;;5091168;28;20086;-83
2022/11/11 10:14:33;;;;;;;33.10;20.80;;;11.20;99.90;;;;;;5092842;28;20451;-80
2022/11/11 10:17:11;;;;;;;33.67;21.45;;;11.20;99.90;;;;;;5092995;28;20036;-81
2022/11/11 10:19:52;;;;;;;35.17;21.63;;;11.20;99.90;;;;;;5076519;28;20104;-79
2022/11/11 10:22:19;;;;;;;37.00;21.95;;;11.10;99.90;;;;;;5075277;28;20044;-79
2022/11/11 10:25:07;;;;;;;32.10;21.15;;;11.20;99.90;;;;;;5093851;28;20098;-83
2022/11/11 10:27:33;;;;;;;32.15;21.30;;;11.20;99.90;;;;;;5052268;28;20053;-78
2022/11/11 10:30:06;;;;;;;32.75;20.95;;;11.20;99.90;;;;;;5017932;28;20048;-80
2022/11/11 10:32:33;;;;;;;33.45;20.98;;;11.30;99.90;;;;;;5032757;28;20053;-79
2022/11/11 10:35:17;;;;;;;32.90;21.00;;;11.10;99.90;;;;;;5034159;28;20122;-81
2022/11/11 10:37:43;;;;;;;35.53;22.83;;;11.20;99.90;;;;;;5014350;28;20049;-82
2022/11/11 10:40:21;;;;;;;32.75;21.27;;;11.10;99.90;;;;;;5015004;28;20091;-79
2022/11/11 10:42:47;;;;;;;34.55;21.40;;;11.20;99.90;;;;;;5029803;28;20131;-80
2022/11/11 10:45:35;;;;;;;31.67;20.30;;;11.20;99.90;;;;;;5031093;28;20057;-79
2022/11/11 10:48:11;;;;;;;31.30;20.77;;;11.30;99.90;;;;;;5024446;28;20047;-82
2022/11/11 10:50:46;;;;;;;30.35;20.75;;;11.20;99.90;;;;;;5040548;28;20095;-80
2022/11/11 10:53:21;;;;;;;29.90;20.42;;;11.30;99.90;;;;;;5025695;28;20052;-78
2022/11/11 10:55:54;;;;;;;33.22;20.23;;;11.30;99.90;;;;;;5026002;28;20077;-80
2022/11/11 10:58:22;;;;;;;26.88;19.40;;;11.40;99.90;;;;;;5014824;28;20061;-79
2022/11/11 11:00:51;;;;;;;33.05;19.90;;;11.40;99.90;;;;;;5033737;28;20044;-83
2022/11/11 11:03:29;;;;;;;31.50;20.35;;;11.40;99.90;;;;;;5015408;28;20072;-82
2022/11/11 11:06:13;;;;;;;30.08;20.17;;;11.30;99.90;;;;;;5073008;28;20078;-78
2022/11/11 11:08:47;;;;;;;30.15;20.15;;;11.40;99.90;;;;;;5086077;28;20131;-82
2022/11/11 11:11:28;;;;;;;27.33;19.02;;;11.60;99.90;;;;;;5086878;28;20047;-79
2022/11/11 11:13:59;;;;;;;27.83;19.05;;;11.40;99.90;;;;;;5071444;28;20430;-77
2022/11/11 11:16:34;;;;;;;29.55;20.13;;;11.50;99.90;;;;;;5076913;28;20109;-77
2022/11/11 11:19:24;;;;;;;28.83;19.08;;;11.60;99.90;;;;;;5093651;28;20153;-79
2022/11/11 11:21:51;;;;;;;29.65;18.45;;;11.50;99.90;;;;;;5097239;28;20053;-77
2022/11/11 11:24:33;;;;;;;32.10;18.92;;;11.50;99.90;;;;;;5088455;28;20040;-78
2022/11/11 11:27:05;;;;;;;27.13;19.33;;;11.60;99.90;;;;;;5103000;27;20052;-81
2022/11/11 11:29:36;;;;;;;27.27;18.15;;;11.60;99.90;;;;;;5082391;28;20389;-82
2022/11/11 11:32:41;;;;;;;28.85;19.08;;;11.60;99.90;;;;;;5085465;28;20086;-77
2022/11/11 11:35:08;;;;;;;28.58;19.10;;;11.60;99.90;;;;;;5081052;28;20387;-80
2022/11/11 11:37:49;;;;;;;26.63;18.52;;;11.50;99.90;;;;;;5082246;28;20051;-80
2022/11/11 11:40:15;;;;;;;29.23;18.33;;;11.60;99.90;;;;;;5083360;28;20386;-79
2022/11/11 11:42:42;;;;;;;28.77;19.00;;;11.70;99.90;;;;;;5083705;28;20061;-80
2022/11/11 11:45:16;;;;;;;26.88;18.40;;;11.70;99.90;;;;;;5065436;28;20025;-85
2022/11/11 11:47:58;;;;;;;26.23;17.73;;;11.80;99.90;;;;;;5113229;27;20048;-80
2022/11/11 11:50:27;;;;;;;31.40;18.73;;;11.70;99.90;;;;;;5083766;28;20040;-83
2022/11/11 11:53:05;;;;;;;24.30;17.88;;;11.80;99.90;;;;;;5080605;28;20051;-82
2022/11/11 11:55:36;;;;;;;25.98;18.60;;;11.70;99.90;;;;;;5084299;28;20032;-84
2022/11/11 11:58:12;;;;;;;29.13;18.08;;;11.70;99.90;;;;;;5081693;28;20068;-82
2022/11/11 12:00:50;;;;;;;26.45;18.13;;;11.70;99.90;;;;;;5085805;28;20028;-83
2022/11/11 12:03:40;;;;;;;26.13;17.60;;;11.80;99.90;;;;;;5120970;27;20431;-84
2022/11/11 12:06:29;;;;;;;25.65;17.83;;;11.70;99.90;;;;;;5087424;28;20130;-79
2022/11/11 12:09:08;;;;;;;26.95;17.83;;;11.80;99.90;;;;;;5106707;28;20398;-78
2022/11/11 12:11:46;;;;;;;24.70;17.48;;;11.70;99.90;;;;;;5071133;28;20182;-81
2022/11/11 12:14:29;;;;;;;22.90;16.67;;;11.70;99.90;;;;;;5066257;28;20169;-82
2022/11/11 12:17:06;;;;;;;25.30;17.85;;;11.60;99.90;;;;;;5081518;28;20035;-81
2022/11/11 12:19:38;;;;;;;30.38;17.48;;;11.70;99.90;;;;;;5101156;27;20129;-80
2022/11/11 12:22:23;;;;;;;25.55;17.42;;;11.70;99.90;;;;;;5082241;28;20044;-82
2022/11/11 12:25:07;;;;;;;23.30;15.77;;;11.80;99.90;;;;;;5077022;28;20131;-81
2022/11/11 12:28:01;;;;;;;22.17;16.10;;;11.70;99.90;;;;;;5079783;28;20051;-81
2022/11/11 12:30:29;;;;;;;26.58;17.20;;;11.70;99.90;;;;;;5069230;28;20110;-80
2022/11/11 12:33:05;;;;;;;26.48;17.45;;;11.50;99.90;;;;;;5071470;28;20217;-84
2022/11/11 12:35:51;;;;;;;26.75;18.15;;;11.60;99.90;;;;;;5099794;28;20056;-81
2022/11/11 12:38:55;;;;;;;25.30;17.92;;;11.70;99.90;;;;;;5061547;28;20060;-83
2022/11/11 12:41:40;;;;;;;27.50;18.35;;;11.60;99.90;;;;;;5046481;28;20184;-80
2022/11/11 12:44:10;;;;;;;28.13;19.33;;;11.60;99.90;;;;;;5032335;28;20037;-81
2022/11/11 12:46:45;;;;;;;27.35;18.88;;;11.50;99.90;;;;;;5019343;28;20126;-84
2022/11/11 12:49:44;;;;;;;29.88;18.33;;;11.80;99.90;;;;;;5041533;28;20194;-81
2022/11/11 12:52:15;;;;;;;30.52;18.42;;;11.60;99.90;;;;;;5024725;28;20044;-83
2022/11/11 12:54:52;;;;;;;26.77;18.65;;;11.70;99.90;;;;;;5030432;28;21920;-82
2022/11/11 12:57:27;;;;;;;29.73;18.23;;;11.70;99.90;;;;;;5042181;28;20092;-88
2022/11/11 13:00:08;;;;;;;25.15;17.27;;;11.70;99.90;;;;;;5027213;28;20942;-82
2022/11/11 13:02:53;;;;;;;27.33;19.80;;;11.70;99.90;;;;;;5041651;28;20106;-82
2022/11/11 13:05:21;;;;;;;28.13;18.52;;;11.70;99.90;;;;;;5028529;28;20053;-78
2022/11/11 13:07:56;;;;;;;27.70;19.40;;;11.60;99.90;;;;;;5025990;28;20045;-81
2022/11/11 13:10:46;;;;;;;28.38;19.02;;;11.70;99.90;;;;;;5026740;28;20041;-79
2022/11/11 13:13:33;;;;;;;28.55;19.23;;;11.60;99.90;;;;;;5026791;28;20045;-82
2022/11/11 13:15:59;;;;;;;26.35;17.98;;;11.60;99.90;;;;;;5039547;28;20041;-80
2022/11/11 13:18:53;;;;;;;26.50;18.33;;;11.50;99.90;;;;;;5040555;28;20109;-80
2022/11/11 13:21:25;;;;;;;23.55;16.73;;;11.60;99.90;;;;;;5100618;28;20040;-82
2022/11/11 13:23:52;;;;;;;25.92;16.20;;;11.70;99.90;;;;;;5112484;27;20067;-83
2022/11/11 13:26:44;;;;;;;22.60;16.98;;;11.70;99.90;;;;;;5102206;28;20583;-82
2022/11/11 13:29:28;;;;;;;29.00;18.63;;;11.40;99.90;;;;;;5086725;28;20035;-82
2022/11/11 13:31:55;;;;;;;32.40;18.38;;;11.50;99.90;;;;;;5088432;28;20397;-85
2022/11/11 13:34:21;;;;;;;26.35;17.88;;;11.40;99.90;;;;;;5062389;28;20086;-86
2022/11/11 13:36:54;;;;;;;26.17;17.67;;;11.40;99.90;;;;;;5083396;28;20044;-82
2022/11/11 13:39:30;;;;;;;27.38;18.33;;;11.50;99.90;;;;;;5082253;28;20486;-85
2022/11/11 13:41:58;;;;;;;32.58;19.05;;;11.50;99.90;;;;;;5120376;27;20109;-85
2022/11/11 13:47:56;;;;;;;29.42;20.52;;;11.40;99.90;;;;;;5125852;27;20056;-81
2022/11/11 13:50:27;;;;;;;32.72;20.48;;;11.50;99.90;;;;;;5118442;27;20044;-83
2022/11/11 13:53:33;;;;;;;33.40;21.63;;;11.50;99.90;;;;;;5084319;28;20555;-80
2022/11/11 13:56:02;;;;;;;32.10;21.65;;;11.40;99.90;;;;;;5082546;28;20040;-82
2022/11/11 13:58:39;;;;;;;33.60;22.23;;;11.40;99.90;;;;;;5086137;28;20051;-85
2022/11/11 14:01:08;;;;;;;34.75;21.50;;;11.50;99.90;;;;;;5089034;28;20048;-84
2022/11/11 14:03:55;;;;;;;31.20;20.13;;;11.40;99.90;;;;;;5084711;28;20048;-82
2022/11/11 14:06:33;;;;;;;30.45;21.27;;;11.60;99.90;;;;;;5082970;28;20130;-80
2022/11/11 14:08:59;;;;;;;31.05;21.25;;;11.50;99.90;;;;;;5116293;27;20075;-86
2022/11/11 14:11:25;;;;;;;32.03;20.65;;;11.60;99.90;;;;;;5061885;28;20519;-85
2022/11/11 14:14:14;;;;;;;25.02;18.83;;;11.50;99.90;;;;;;5091028;28;20036;-84